createdAt,value
2023-02-18T00:01:38.862Z,8.10
2023-02-18T00:04:08.132Z,8.03
2023-02-18T00:06:36.571Z,8.83
2023-02-18T00:09:05.059Z,7.43
2023-02-18T00:11:33.960Z,8.43
2023-02-18T00:14:04.585Z,7.53
2023-02-18T00:16:32.790Z,8.40
2023-02-18T00:19:01.753Z,8.30
2023-02-18T00:21:31.352Z,7.30
2023-02-18T00:23:59.150Z,7.63
2023-02-18T00:26:27.184Z,8.53
2023-02-18T00:28:55.439Z,8.00
2023-02-18T00:31:24.864Z,9.13
2023-02-18T00:33:52.915Z,7.63
2023-02-18T00:36:21.604Z,7.80
2023-02-18T00:38:51.632Z,8.53
2023-02-18T00:41:20.116Z,7.87
2023-02-18T00:43:47.908Z,10.53
2023-02-18T00:46:16.108Z,9.93
2023-02-18T00:48:43.887Z,9.33
2023-02-18T00:51:11.998Z,10.47
2023-02-18T00:53:40.496Z,9.23
2023-02-18T00:56:10.310Z,8.30
2023-02-18T00:58:38.347Z,7.90
2023-02-18T01:01:07.656Z,8.80
2023-02-18T01:03:35.977Z,9.20
2023-02-18T01:06:04.009Z,8.33
2023-02-18T01:08:31.824Z,8.37
2023-02-18T01:10:59.851Z,9.10
2023-02-18T01:13:29.835Z,9.30
2023-02-18T01:15:57.612Z,9.07
2023-02-18T01:18:26.042Z,9.50
2023-02-18T01:20:54.297Z,9.87
2023-02-18T01:23:22.020Z,8.53
2023-02-18T01:25:50.321Z,8.93
2023-02-18T01:28:19.038Z,7.30
2023-02-18T01:30:48.302Z,8.57
2023-02-18T01:33:16.071Z,8.30
2023-02-18T01:35:43.899Z,10.40
2023-02-18T01:38:11.608Z,8.30
2023-02-18T01:40:46.536Z,8.43
2023-02-18T01:43:14.623Z,9.07
2023-02-18T01:45:56.505Z,9.10
2023-02-18T01:48:26.113Z,11.03
2023-02-18T01:50:57.812Z,11.67
2023-02-18T01:53:28.002Z,12.30
2023-02-18T01:55:56.153Z,11.90
2023-02-18T01:58:25.681Z,11.90
2023-02-18T02:00:54.918Z,12.20
2023-02-18T02:03:22.953Z,13.00
2023-02-18T02:05:51.059Z,13.23
2023-02-18T02:08:20.031Z,12.50
2023-02-18T02:10:57.602Z,10.07
2023-02-18T02:13:30.947Z,9.50
2023-02-18T02:16:04.588Z,9.53
2023-02-18T02:18:38.260Z,9.07
2023-02-18T02:21:19.037Z,9.30
2023-02-18T02:23:59.216Z,9.47
2023-02-18T02:26:38.813Z,9.23
2023-02-18T02:29:18.966Z,8.97
2023-02-18T02:32:01.923Z,10.80
2023-02-18T02:34:55.290Z,9.60
2023-02-18T02:37:26.986Z,8.77
2023-02-18T02:39:59.063Z,8.17
2023-02-18T02:42:31.083Z,8.53
2023-02-18T02:45:01.861Z,9.17
2023-02-18T02:47:34.125Z,8.23
2023-02-18T02:50:05.158Z,8.27
2023-02-18T02:52:33.953Z,8.80
2023-02-18T02:55:01.720Z,8.90
2023-02-18T02:57:49.847Z,9.53
2023-02-18T03:00:19.339Z,7.33
2023-02-18T03:03:04.969Z,9.70
2023-02-18T03:05:38.786Z,9.00
2023-02-18T03:08:11.696Z,8.30
2023-02-18T03:10:47.276Z,8.03
2023-02-18T03:13:19.700Z,8.40
2023-02-18T03:15:51.238Z,9.83
2023-02-18T03:18:21.741Z,9.53
2023-02-18T03:20:55.049Z,10.90
2023-02-18T03:23:28.275Z,10.70
2023-02-18T03:25:57.366Z,11.33
2023-02-18T03:28:25.895Z,14.87
2023-02-18T03:30:57.047Z,22.50
2023-02-18T03:33:27.378Z,17.90
2023-02-18T03:35:57.599Z,16.13
2023-02-18T03:38:27.132Z,16.87
2023-02-18T03:40:55.100Z,16.10
2023-02-18T03:43:22.926Z,15.87
2023-02-18T03:45:51.290Z,16.30
2023-02-18T03:48:19.519Z,18.30
2023-02-18T03:50:49.531Z,16.13
2023-02-18T03:53:18.787Z,17.27
2023-02-18T03:55:46.531Z,16.87
2023-02-18T03:58:14.258Z,15.10
2023-02-18T04:00:41.889Z,15.40
2023-02-18T04:03:09.635Z,15.60
2023-02-18T04:05:38.130Z,16.80
2023-02-18T04:08:06.339Z,15.00
2023-02-18T04:10:35.855Z,13.20
2023-02-18T04:13:03.883Z,11.07
2023-02-18T04:15:31.686Z,11.43
2023-02-18T04:18:00.729Z,10.83
2023-02-18T04:20:28.665Z,12.10
2023-02-18T04:22:56.416Z,9.93
2023-02-18T04:25:24.435Z,9.77
2023-02-18T04:27:56.192Z,8.97
2023-02-18T04:30:24.382Z,9.50
2023-02-18T04:32:52.267Z,10.67
2023-02-18T04:35:21.559Z,10.07
2023-02-18T04:37:49.704Z,11.17
2023-02-18T04:40:17.828Z,10.27
2023-02-18T04:42:48.189Z,10.07
2023-02-18T04:45:17.749Z,10.23
2023-02-18T04:47:45.606Z,9.07
2023-02-18T04:50:13.447Z,8.50
2023-02-18T04:52:41.150Z,8.80
2023-02-18T04:55:09.092Z,10.37
2023-02-18T04:57:36.846Z,9.57
2023-02-18T05:00:06.959Z,8.67
2023-02-18T05:02:36.532Z,9.97
2023-02-18T05:05:06.970Z,10.93
2023-02-18T05:07:34.989Z,10.53
2023-02-18T05:10:02.782Z,10.27
2023-02-18T05:12:30.777Z,10.60
2023-02-18T05:14:58.865Z,10.13
2023-02-18T05:17:27.122Z,10.67
2023-02-18T05:19:56.363Z,11.53
2023-02-18T05:22:24.206Z,11.13
2023-02-18T05:24:52.051Z,10.70
2023-02-18T05:27:19.841Z,10.93
2023-02-18T05:29:47.825Z,10.17
2023-02-18T05:32:15.445Z,9.90
2023-02-18T05:34:43.319Z,8.20
2023-02-18T05:37:14.033Z,10.13
2023-02-18T05:39:42.180Z,10.87
2023-02-18T05:42:10.934Z,10.47
2023-02-18T05:44:38.669Z,9.10
2023-02-18T05:47:11.284Z,9.40
2023-02-18T05:49:40.677Z,9.30
2023-02-18T05:52:08.741Z,9.97
2023-02-18T05:54:38.798Z,10.43
2023-02-18T05:57:06.826Z,8.70
2023-02-18T05:59:34.860Z,9.23
2023-02-18T06:02:02.530Z,9.53
2023-02-18T06:04:30.412Z,9.43
2023-02-18T06:07:01.850Z,9.93
2023-02-18T06:09:29.585Z,11.50
2023-02-18T06:11:58.759Z,10.87
2023-02-18T06:14:26.498Z,10.23
2023-02-18T06:16:54.376Z,10.33
2023-02-18T06:19:22.088Z,11.30
2023-02-18T06:21:49.859Z,14.13
2023-02-18T06:24:17.704Z,12.53
2023-02-18T06:26:45.492Z,15.97
2023-02-18T06:29:14.996Z,15.80
2023-02-18T06:31:42.848Z,15.73
2023-02-18T06:34:10.576Z,15.33
2023-02-18T06:36:38.473Z,15.53
2023-02-18T06:39:08.346Z,17.23
2023-02-18T06:41:37.428Z,17.40
2023-02-18T06:44:05.630Z,17.07
2023-02-18T06:46:34.823Z,17.03
2023-02-18T06:49:03.082Z,17.10
2023-02-18T06:51:31.542Z,16.97
2023-02-18T06:53:59.222Z,15.23
2023-02-18T06:56:30.109Z,14.80
2023-02-18T06:58:58.764Z,13.40
2023-02-18T07:01:26.472Z,12.23
2023-02-18T07:03:56.019Z,13.00
2023-02-18T07:06:24.056Z,14.50
2023-02-18T07:08:51.822Z,12.90
2023-02-18T07:11:21.368Z,12.97
2023-02-18T07:13:49.041Z,11.93
2023-02-18T07:16:16.850Z,11.10
2023-02-18T07:18:44.597Z,12.40
2023-02-18T07:21:13.843Z,11.90
2023-02-18T07:23:41.860Z,10.27
2023-02-18T07:26:11.162Z,12.07
2023-02-18T07:28:39.010Z,11.37
2023-02-18T07:31:07.582Z,10.60
2023-02-18T07:33:37.061Z,11.33
2023-02-18T07:36:05.121Z,12.00
2023-02-18T07:38:34.435Z,11.83
2023-02-18T07:41:02.371Z,13.67
2023-02-18T07:43:30.228Z,13.07
2023-02-18T07:45:58.140Z,12.63
2023-02-18T07:48:26.907Z,13.97
2023-02-18T07:50:54.576Z,12.90
2023-02-18T07:53:22.524Z,13.50
2023-02-18T07:55:51.946Z,14.83
2023-02-18T07:58:20.571Z,12.27
2023-02-18T08:00:53.387Z,11.30
2023-02-18T08:03:21.942Z,12.60
2023-02-18T08:05:50.278Z,12.93
2023-02-18T08:08:20.672Z,13.13
2023-02-18T08:10:48.992Z,13.80
2023-02-18T08:13:20.444Z,12.67
2023-02-18T08:15:48.181Z,12.00
2023-02-18T08:18:17.386Z,12.57
2023-02-18T08:20:45.347Z,12.80
2023-02-18T08:23:13.493Z,10.87
2023-02-18T08:25:42.231Z,12.10
2023-02-18T08:28:11.392Z,12.30
2023-02-18T08:30:40.539Z,11.33
2023-02-18T08:33:08.288Z,11.73
2023-02-18T08:35:36.279Z,12.10
2023-02-18T08:38:03.920Z,13.43
2023-02-18T08:40:31.663Z,12.87
2023-02-18T08:42:59.608Z,11.17
2023-02-18T08:45:27.723Z,12.50
2023-02-18T08:48:18.330Z,14.10
2023-02-18T08:50:44.927Z,13.50
2023-02-18T08:53:12.661Z,11.53
2023-02-18T08:55:42.011Z,13.63
2023-02-18T08:58:11.627Z,12.77
2023-02-18T09:00:40.812Z,13.50
2023-02-18T09:03:11.910Z,13.07
2023-02-18T09:05:40.719Z,13.33
2023-02-18T09:08:08.755Z,13.87
2023-02-18T09:10:37.401Z,12.83
2023-02-18T09:13:05.399Z,10.73
2023-02-18T09:15:35.477Z,12.00
2023-02-18T09:18:03.278Z,11.27
2023-02-18T09:20:32.356Z,11.27
2023-02-18T09:23:01.057Z,11.37
2023-02-18T09:25:28.951Z,12.47
2023-02-18T09:27:57.019Z,12.83
2023-02-18T09:30:25.222Z,11.90
2023-02-18T09:32:53.018Z,11.10
2023-02-18T09:35:20.654Z,13.10
2023-02-18T09:37:49.948Z,11.07
2023-02-18T09:40:27.533Z,12.83
2023-02-18T09:42:56.233Z,11.93
2023-02-18T09:45:25.184Z,12.23
2023-02-18T09:47:53.421Z,11.60
2023-02-18T09:50:22.362Z,11.10
2023-02-18T09:52:52.046Z,11.47
2023-02-18T09:55:22.140Z,11.83
2023-02-18T09:57:51.183Z,12.57
2023-02-18T10:00:20.851Z,11.33
2023-02-18T10:02:52.136Z,12.13
2023-02-18T10:05:20.218Z,12.40
2023-02-18T10:07:50.040Z,11.67
2023-02-18T10:10:19.011Z,12.07
2023-02-18T10:12:47.994Z,11.93
2023-02-18T10:15:21.295Z,11.17
2023-02-18T10:17:49.470Z,11.40
2023-02-18T10:20:18.317Z,12.57
2023-02-18T10:22:46.508Z,10.23
2023-02-18T10:25:18.608Z,10.80
2023-02-18T10:27:47.526Z,12.80
2023-02-18T10:30:23.822Z,13.03
2023-02-18T10:32:54.261Z,12.40
2023-02-18T10:35:25.013Z,10.87
2023-02-18T10:38:02.556Z,10.20
2023-02-18T10:40:37.092Z,9.63
2023-02-18T10:43:09.529Z,11.17
2023-02-18T10:45:44.712Z,12.30
2023-02-18T10:48:24.490Z,11.80
2023-02-18T10:50:52.316Z,11.43
2023-02-18T10:53:26.065Z,10.97
2023-02-18T10:55:54.615Z,10.07
2023-02-18T10:58:27.367Z,11.73
2023-02-18T11:00:57.439Z,10.70
2023-02-18T11:03:26.058Z,10.30
2023-02-18T11:05:56.062Z,11.27
2023-02-18T11:08:26.233Z,10.53
2023-02-18T11:10:57.445Z,10.17
2023-02-18T11:13:27.402Z,10.60
2023-02-18T11:15:58.547Z,9.53
2023-02-18T11:18:29.835Z,9.03
2023-02-18T11:20:59.620Z,3.80
2023-02-18T11:23:28.405Z,7.27
2023-02-18T11:26:00.866Z,7.10
2023-02-18T11:28:31.107Z,5.37
2023-02-18T11:31:01.763Z,5.63
2023-02-18T11:33:33.498Z,6.90
2023-02-18T11:36:07.453Z,4.00
2023-02-18T11:38:37.093Z,3.67
2023-02-18T11:41:09.090Z,3.63
2023-02-18T11:43:37.945Z,3.50
2023-02-18T11:46:14.618Z,3.13
2023-02-18T11:48:42.527Z,3.80
2023-02-18T11:51:15.505Z,3.80
2023-02-18T11:53:54.826Z,3.40
2023-02-18T11:56:22.926Z,3.37
2023-02-18T11:58:51.568Z,3.47
2023-02-18T12:01:28.913Z,4.00
2023-02-18T12:03:58.099Z,3.70
2023-02-18T12:06:30.336Z,4.17
2023-02-18T12:09:00.473Z,4.07
2023-02-18T12:11:29.899Z,3.60
2023-02-18T12:14:00.178Z,4.43
2023-02-18T12:16:36.044Z,4.10
2023-02-18T12:19:10.685Z,3.13
2023-02-18T12:21:44.283Z,4.10
2023-02-18T12:24:17.265Z,4.83
2023-02-18T12:26:50.444Z,4.63
2023-02-18T12:29:23.252Z,3.50
2023-02-18T12:32:10.044Z,3.67
2023-02-18T12:34:43.039Z,3.50
2023-02-18T12:37:16.082Z,3.53
2023-02-18T12:39:56.155Z,3.90
2023-02-18T12:42:30.232Z,3.93
2023-02-18T12:45:04.229Z,3.13
2023-02-18T12:47:38.439Z,3.70
2023-02-18T12:50:24.831Z,3.63
2023-02-18T12:53:05.517Z,3.60
2023-02-18T12:55:42.381Z,3.40
2023-02-18T12:58:16.160Z,4.07
2023-02-18T13:00:56.833Z,3.97
2023-02-18T13:03:51.607Z,3.77
2023-02-18T13:06:28.187Z,3.70
2023-02-18T13:08:59.657Z,4.00
2023-02-18T13:11:33.410Z,3.60
2023-02-18T13:14:04.500Z,3.73
2023-02-18T13:16:33.096Z,3.63
2023-02-18T13:19:03.738Z,4.00
2023-02-18T13:21:32.283Z,3.77
2023-02-18T13:24:03.264Z,3.53
2023-02-18T13:26:32.619Z,2.70
2023-02-18T13:29:08.790Z,3.43
2023-02-18T13:31:40.129Z,3.63
2023-02-18T13:34:13.490Z,4.43
2023-02-18T13:36:56.164Z,3.67
2023-02-18T13:39:25.236Z,3.00
2023-02-18T13:41:53.388Z,3.80
2023-02-18T13:44:40.015Z,3.47
2023-02-18T13:47:11.144Z,3.40
2023-02-18T13:49:41.698Z,3.67
2023-02-18T13:52:20.007Z,4.20
2023-02-18T13:54:49.540Z,3.77
2023-02-18T13:57:21.031Z,3.37
2023-02-18T13:59:50.682Z,3.93
2023-02-18T14:02:31.849Z,3.83
2023-02-18T14:08:04.514Z,3.70
2023-02-18T14:10:36.505Z,3.97
2023-02-18T14:13:34.535Z,3.43
2023-02-18T14:16:02.487Z,3.87
2023-02-18T14:18:37.040Z,3.60
2023-02-18T14:21:05.904Z,2.90
2023-02-18T14:23:42.346Z,2.73
2023-02-18T14:26:11.232Z,3.83
2023-02-18T14:28:41.206Z,3.93
2023-02-18T14:31:26.187Z,3.00
2023-02-18T14:34:06.394Z,4.00
2023-02-18T14:36:38.706Z,4.00
2023-02-18T14:39:12.580Z,3.20
2023-02-18T14:41:45.419Z,3.23
2023-02-18T14:44:27.137Z,3.30
2023-02-18T14:47:08.255Z,2.77
2023-02-18T14:49:40.814Z,3.93
2023-02-18T14:52:13.414Z,3.20
2023-02-18T14:54:42.946Z,4.43
2023-02-18T14:57:14.466Z,4.00
2023-02-18T14:59:42.622Z,3.93
2023-02-18T15:02:16.396Z,4.27
2023-02-18T15:04:46.080Z,3.73
2023-02-18T15:07:14.404Z,5.37
2023-02-18T15:09:50.929Z,4.13
2023-02-18T15:12:22.933Z,3.57
2023-02-18T15:14:53.471Z,4.10
2023-02-18T15:17:23.516Z,4.10
2023-02-18T15:19:53.542Z,3.60
2023-02-18T15:22:24.206Z,3.63
2023-02-18T15:24:54.637Z,3.93
2023-02-18T15:27:23.771Z,3.63
2023-02-18T15:29:52.066Z,3.67
2023-02-18T15:32:21.499Z,3.53
2023-02-18T15:34:51.910Z,3.57
2023-02-18T15:37:21.968Z,4.10
2023-02-18T15:39:50.503Z,3.27
2023-02-18T15:42:23.769Z,4.50
2023-02-18T15:44:52.889Z,3.33
2023-02-18T15:47:21.522Z,3.50
2023-02-18T15:49:51.661Z,4.70
2023-02-18T15:52:24.284Z,4.17
2023-02-18T15:54:52.110Z,4.40
2023-02-18T15:57:23.224Z,5.20
2023-02-18T15:59:55.387Z,4.83
2023-02-18T16:02:23.691Z,4.90
2023-02-18T16:04:53.828Z,4.47
2023-02-18T16:07:23.248Z,4.50
2023-02-18T16:09:51.047Z,7.40
2023-02-18T16:12:29.387Z,6.30
2023-02-18T16:14:57.829Z,5.90
2023-02-18T16:17:26.967Z,5.37
2023-02-18T16:20:04.514Z,5.00
2023-02-18T16:22:34.815Z,4.93
2023-02-18T16:25:08.206Z,4.27
2023-02-18T16:27:39.029Z,4.30
2023-02-18T16:30:15.691Z,3.77
2023-02-18T16:32:43.620Z,4.60
2023-02-18T16:35:12.672Z,3.70
2023-02-18T16:37:40.598Z,4.90
2023-02-18T16:40:22.396Z,4.23
2023-02-18T16:42:52.149Z,5.17
2023-02-18T16:45:20.144Z,4.33
2023-02-18T16:47:49.053Z,3.93
2023-02-18T16:50:19.374Z,5.00
2023-02-18T16:52:47.154Z,4.50
2023-02-18T16:55:18.269Z,4.77
2023-02-18T16:57:48.246Z,5.50
2023-02-18T17:00:19.785Z,4.07
2023-02-18T17:02:48.551Z,4.57
2023-02-18T17:05:26.497Z,5.87
2023-02-18T17:07:55.355Z,4.23
2023-02-18T17:10:23.100Z,5.90
2023-02-18T17:12:50.823Z,5.33
2023-02-18T17:15:26.006Z,6.50
2023-02-18T17:17:53.781Z,8.13
2023-02-18T17:20:21.517Z,12.83
2023-02-18T17:22:49.714Z,22.67
2023-02-18T17:25:19.939Z,24.03
2023-02-18T17:27:48.146Z,36.03
2023-02-18T17:30:16.310Z,36.97
2023-02-18T17:32:46.186Z,25.40
2023-02-18T17:35:17.935Z,24.67
2023-02-18T17:37:45.667Z,20.63
2023-02-18T17:40:17.109Z,19.97
2023-02-18T17:42:45.907Z,22.53
2023-02-18T17:45:18.317Z,23.63
2023-02-18T17:47:47.424Z,28.37
2023-02-18T17:50:15.497Z,31.10
2023-02-18T17:52:43.545Z,28.67
2023-02-18T17:55:22.442Z,26.00
2023-02-18T17:57:50.843Z,25.63
2023-02-18T18:00:20.464Z,25.13
2023-02-18T18:02:49.787Z,20.60
2023-02-18T18:05:19.165Z,13.20
2023-02-18T18:07:47.516Z,13.43
2023-02-18T18:10:17.751Z,8.40
2023-02-18T18:12:45.735Z,6.57
2023-02-18T18:15:37.738Z,11.87
2023-02-18T18:18:07.232Z,13.60
2023-02-18T18:20:35.543Z,13.90
2023-02-18T18:23:04.463Z,8.40
2023-02-18T18:25:35.252Z,10.03
2023-02-18T18:28:03.281Z,10.00
2023-02-18T18:30:32.028Z,10.30
2023-02-18T18:33:00.145Z,8.30
2023-02-18T18:35:30.313Z,9.47
2023-02-18T18:37:58.374Z,8.97
2023-02-18T18:40:28.153Z,8.30
2023-02-18T18:42:56.033Z,8.33
2023-02-18T18:45:24.740Z,8.50
2023-02-18T18:47:53.004Z,9.10
2023-02-18T18:50:22.558Z,9.87
2023-02-18T18:52:52.506Z,8.30
2023-02-18T18:55:25.239Z,11.17
2023-02-18T18:57:53.339Z,11.37
2023-02-18T19:00:23.460Z,15.27
2023-02-18T19:02:51.212Z,14.43
2023-02-18T19:05:23.881Z,7.57
2023-02-18T19:07:53.595Z,8.63
2023-02-18T19:10:21.542Z,8.80
2023-02-18T19:12:50.067Z,8.53
2023-02-18T19:15:19.504Z,9.03
2023-02-18T19:17:48.334Z,9.37
2023-02-18T19:20:17.695Z,7.53
2023-02-18T19:22:45.483Z,9.40
2023-02-18T19:25:14.726Z,10.20
2023-02-18T19:27:43.598Z,11.07
2023-02-18T19:30:14.073Z,10.07
2023-02-18T19:32:41.954Z,13.83
2023-02-18T19:35:10.069Z,19.67
2023-02-18T19:37:38.802Z,15.40
2023-02-18T19:40:07.528Z,12.20
2023-02-18T19:42:36.864Z,10.87
2023-02-18T19:45:04.685Z,11.73
2023-02-18T19:47:32.419Z,12.23
2023-02-18T19:50:00.836Z,10.10
2023-02-18T19:52:29.148Z,11.33
2023-02-18T19:54:57.338Z,11.00
2023-02-18T19:57:25.710Z,10.30
2023-02-18T19:59:54.943Z,11.10
2023-02-18T20:02:24.146Z,10.83
2023-02-18T20:04:52.671Z,9.73
2023-02-18T20:07:22.185Z,8.47
2023-02-18T20:09:52.345Z,8.70
2023-02-18T20:12:20.052Z,10.33
2023-02-18T20:14:47.919Z,9.80
2023-02-18T20:17:17.159Z,11.73
2023-02-18T20:19:44.958Z,10.70
2023-02-18T20:22:12.867Z,10.70
2023-02-18T20:24:41.118Z,10.97
2023-02-18T20:27:09.438Z,9.23
2023-02-18T20:29:37.547Z,10.50
2023-02-18T20:32:05.859Z,10.77
2023-02-18T20:34:34.952Z,10.90
2023-02-18T20:37:02.702Z,10.03
2023-02-18T20:39:30.392Z,11.50
2023-02-18T20:42:02.988Z,12.97
2023-02-18T20:44:35.925Z,17.50
2023-02-18T20:47:03.737Z,15.17
2023-02-18T20:49:31.530Z,14.03
2023-02-18T20:52:00.905Z,12.90
2023-02-18T20:54:29.411Z,15.23
2023-02-18T20:56:57.596Z,17.93
2023-02-18T20:59:26.258Z,11.63
2023-02-18T21:01:54.015Z,11.70
2023-02-18T21:04:21.749Z,10.43
2023-02-18T21:06:50.743Z,9.83
2023-02-18T21:09:20.009Z,10.83
2023-02-18T21:11:47.733Z,8.87
2023-02-18T21:14:15.547Z,9.37
2023-02-18T21:16:44.387Z,9.60
2023-02-18T21:19:13.544Z,9.10
2023-02-18T21:21:41.737Z,9.20
2023-02-18T21:24:09.900Z,9.03
2023-02-18T21:26:39.349Z,7.97
2023-02-18T21:29:09.002Z,9.20
2023-02-18T21:31:37.862Z,9.10
2023-02-18T21:34:06.377Z,8.90
2023-02-18T21:36:34.329Z,7.87
2023-02-18T21:39:02.902Z,8.80
2023-02-18T21:41:34.083Z,8.17
2023-02-18T21:44:03.406Z,8.97
2023-02-18T21:46:32.028Z,8.37
2023-02-18T21:49:06.048Z,9.33
2023-02-18T21:51:53.293Z,9.37
2023-02-18T21:54:24.344Z,7.63
2023-02-18T21:56:54.990Z,8.50
2023-02-18T21:59:24.569Z,8.80
2023-02-18T22:01:52.712Z,8.87
2023-02-18T22:04:20.656Z,8.47
2023-02-18T22:06:50.883Z,8.90
2023-02-18T22:09:18.559Z,9.33
2023-02-18T22:11:46.349Z,9.60
2023-02-18T22:14:14.730Z,8.70
2023-02-18T22:16:43.840Z,9.53
2023-02-18T22:19:12.129Z,8.63
2023-02-18T22:21:40.030Z,9.10
2023-02-18T22:24:08.524Z,9.13
2023-02-18T22:26:36.439Z,9.57
2023-02-18T22:29:04.639Z,9.83
2023-02-18T22:31:32.932Z,10.47
2023-02-18T22:34:02.240Z,10.27
2023-02-18T22:36:30.746Z,11.40
2023-02-18T22:38:59.078Z,11.70
2023-02-18T22:41:27.157Z,12.87
2023-02-18T22:43:55.242Z,12.00
2023-02-18T22:46:23.055Z,9.63
2023-02-18T22:48:51.213Z,10.30
2023-02-18T22:51:23.391Z,10.30
2023-02-18T22:53:51.483Z,9.77
2023-02-18T22:56:19.832Z,10.83
2023-02-18T22:58:48.327Z,9.67
2023-02-18T23:01:20.378Z,8.47
2023-02-18T23:03:48.312Z,9.43
2023-02-18T23:06:17.396Z,9.40
2023-02-18T23:08:46.560Z,8.73
2023-02-18T23:11:15.791Z,10.40
2023-02-18T23:13:44.049Z,11.10
2023-02-18T23:16:12.959Z,9.07
2023-02-18T23:18:40.740Z,8.33
2023-02-18T23:21:24.319Z,9.43
2023-02-18T23:23:54.309Z,8.30
2023-02-18T23:26:22.870Z,8.70
2023-02-18T23:28:51.378Z,10.37
2023-02-18T23:31:20.297Z,10.50
2023-02-18T23:33:49.601Z,9.47
2023-02-18T23:36:18.548Z,9.17
2023-02-18T23:38:48.724Z,9.53
2023-02-18T23:41:18.471Z,10.10
2023-02-18T23:43:46.549Z,9.13
2023-02-18T23:46:16.046Z,10.57
2023-02-18T23:48:43.960Z,10.90
2023-02-18T23:51:14.081Z,10.13
2023-02-18T23:53:42.134Z,10.83
2023-02-18T23:56:13.588Z,11.70
2023-02-18T23:58:43.256Z,12.07
